createdAt,value
2022-12-16T00:01:19.202Z,0.65
2022-12-16T00:03:51.765Z,0.65
2022-12-16T00:06:20.152Z,0.70
2022-12-16T00:08:47.136Z,0.80
2022-12-16T00:11:14.169Z,0.70
2022-12-16T00:13:41.387Z,0.60
2022-12-16T00:16:13.989Z,0.73
2022-12-16T00:18:41.466Z,0.60
2022-12-16T00:21:09.121Z,0.60
2022-12-16T00:23:36.745Z,0.60
2022-12-16T00:28:31.179Z,0.60
2022-12-16T00:30:57.917Z,0.60
2022-12-16T00:33:27.244Z,0.73
2022-12-16T00:35:54.772Z,0.70
2022-12-16T00:38:22.753Z,0.60
2022-12-16T00:40:49.773Z,0.70
2022-12-16T00:43:20.124Z,0.50
2022-12-16T00:45:47.721Z,0.70
2022-12-16T00:48:14.897Z,0.80
2022-12-16T00:50:43.694Z,0.70
2022-12-16T00:53:10.318Z,0.73
2022-12-16T00:55:36.951Z,0.73
2022-12-16T00:58:03.690Z,0.60
2022-12-16T01:00:30.348Z,0.60
2022-12-16T01:02:57.290Z,0.65
2022-12-16T01:05:27.663Z,0.70
2022-12-16T01:07:55.792Z,0.60
2022-12-16T01:10:24.573Z,0.60
2022-12-16T01:12:51.584Z,0.60
2022-12-16T01:15:19.023Z,0.60
2022-12-16T01:17:46.828Z,0.70
2022-12-16T01:20:14.199Z,0.68
2022-12-16T01:22:41.132Z,0.75
2022-12-16T01:25:08.299Z,0.60
2022-12-16T01:27:35.162Z,0.90
2022-12-16T01:30:01.857Z,0.75
2022-12-16T01:32:28.573Z,0.75
2022-12-16T01:34:55.880Z,0.80
2022-12-16T01:37:23.563Z,0.77
2022-12-16T01:39:50.903Z,0.73
2022-12-16T01:42:20.878Z,0.70
2022-12-16T01:44:49.950Z,0.80
2022-12-16T01:47:27.331Z,0.60
2022-12-16T01:50:09.649Z,0.70
2022-12-16T01:52:40.181Z,0.70
2022-12-16T01:55:12.506Z,0.70
2022-12-16T01:57:50.308Z,0.75
2022-12-16T02:00:17.614Z,0.70
2022-12-16T02:02:46.749Z,0.80
2022-12-16T02:05:21.875Z,0.82
2022-12-16T02:08:09.613Z,0.80
2022-12-16T02:10:41.844Z,0.77
2022-12-16T02:13:22.815Z,0.70
2022-12-16T02:16:16.693Z,0.80
2022-12-16T02:18:43.739Z,0.70
2022-12-16T02:21:25.674Z,0.60
2022-12-16T02:24:25.550Z,0.70
2022-12-16T02:27:28.268Z,0.73
2022-12-16T02:30:06.710Z,0.77
2022-12-16T02:35:20.843Z,0.90
2022-12-16T02:38:12.197Z,0.73
2022-12-16T02:40:51.924Z,0.70
2022-12-16T02:43:36.070Z,0.70
2022-12-16T02:46:05.481Z,0.60
2022-12-16T02:48:32.535Z,0.70
2022-12-16T02:50:59.442Z,0.80
2022-12-16T02:53:53.350Z,0.63
2022-12-16T07:37:08.672Z,0.90
2022-12-16T07:39:55.478Z,0.70
2022-12-16T07:42:41.435Z,0.80
2022-12-16T07:45:27.491Z,0.80
2022-12-16T07:48:12.959Z,0.77
2022-12-16T07:50:58.548Z,0.85
2022-12-16T07:53:44.373Z,0.80
2022-12-16T07:56:43.483Z,0.60
2022-12-16T07:59:29.215Z,0.80
2022-12-16T08:02:14.609Z,0.70
2022-12-16T08:04:59.918Z,0.77
2022-12-16T08:07:45.310Z,0.77
2022-12-16T08:10:30.871Z,0.80
2022-12-16T08:13:32.346Z,0.80
2022-12-16T08:16:18.199Z,0.90
2022-12-16T08:19:09.043Z,0.70
2022-12-16T08:21:56.365Z,0.70
2022-12-16T08:24:41.761Z,0.90
2022-12-16T08:27:27.104Z,0.60
2022-12-16T08:30:12.628Z,0.70
2022-12-16T08:33:01.879Z,0.75
2022-12-16T08:35:50.523Z,0.80
2022-12-16T08:38:36.247Z,0.70
2022-12-16T08:41:21.725Z,0.80
2022-12-16T08:44:07.210Z,0.70
2022-12-16T08:46:52.753Z,0.70
2022-12-16T08:49:38.059Z,0.70
2022-12-16T08:52:23.607Z,0.77
2022-12-16T08:55:09.084Z,0.70
2022-12-16T08:58:04.997Z,0.70
2022-12-16T09:00:50.294Z,0.70
2022-12-16T09:03:36.309Z,0.70
2022-12-16T09:06:21.793Z,0.70
2022-12-16T09:09:07.274Z,0.70
2022-12-16T09:11:52.692Z,0.70
2022-12-16T09:14:38.036Z,0.70
2022-12-16T09:17:23.549Z,0.70
2022-12-16T09:20:09.014Z,0.70
2022-12-16T09:22:54.279Z,0.60
2022-12-16T09:25:40.577Z,0.70
2022-12-16T09:28:26.053Z,0.63
2022-12-16T09:31:11.507Z,0.50
2022-12-16T09:33:56.707Z,0.57
2022-12-16T09:36:42.141Z,0.50
2022-12-16T09:39:27.661Z,0.60
2022-12-16T09:42:36.266Z,0.60
2022-12-16T09:45:24.241Z,0.60
2022-12-16T09:48:30.887Z,0.63
2022-12-16T09:51:20.661Z,0.40
2022-12-16T09:54:10.204Z,0.50
2022-12-16T09:56:55.716Z,0.55
2022-12-16T09:59:52.257Z,0.57
2022-12-16T10:02:39.558Z,0.50
2022-12-16T10:05:33.822Z,0.50
2022-12-16T10:08:42.677Z,0.50
2022-12-16T10:11:35.781Z,0.50
2022-12-16T10:14:46.819Z,0.50
2022-12-16T10:17:40.807Z,0.60
2022-12-16T10:20:56.985Z,0.60
2022-12-16T10:23:53.127Z,0.50
2022-12-16T10:26:42.531Z,0.45
2022-12-16T10:29:46.090Z,0.50
2022-12-16T10:32:47.551Z,0.45
2022-12-16T10:35:43.389Z,0.50
2022-12-16T10:38:47.701Z,0.40
2022-12-16T10:41:33.610Z,0.40
2022-12-16T10:44:30.718Z,0.40
2022-12-16T10:47:16.183Z,0.40
2022-12-16T10:50:02.594Z,0.30
2022-12-16T10:52:47.849Z,0.30
2022-12-16T10:56:08.436Z,0.40
2022-12-16T10:59:15.779Z,0.40
2022-12-16T11:02:02.091Z,0.40
2022-12-16T11:04:48.769Z,0.30
2022-12-16T11:08:07.473Z,0.32
2022-12-16T11:10:57.217Z,0.50
2022-12-16T11:13:51.054Z,0.40
2022-12-16T11:16:40.832Z,0.40
2022-12-16T11:19:43.652Z,0.30
2022-12-16T11:22:37.290Z,0.30
2022-12-16T11:25:39.604Z,0.50
2022-12-16T11:28:33.695Z,0.40
2022-12-16T11:31:24.884Z,0.40
2022-12-16T11:34:12.286Z,0.40
2022-12-16T11:36:59.585Z,0.40
2022-12-16T11:39:47.771Z,0.32
2022-12-16T11:42:42.495Z,0.40
2022-12-16T11:45:38.736Z,0.40
2022-12-16T11:48:46.418Z,0.40
2022-12-16T11:51:33.288Z,0.50
2022-12-16T11:54:37.556Z,0.40
2022-12-16T11:57:30.098Z,0.40
2022-12-16T12:00:21.360Z,0.30
2022-12-16T12:03:17.529Z,0.47
2022-12-16T12:06:24.939Z,0.40
2022-12-16T12:09:44.372Z,0.30
2022-12-16T12:12:42.901Z,0.40
2022-12-16T12:16:02.882Z,0.40
2022-12-16T12:19:18.858Z,0.40
2022-12-16T12:22:19.848Z,0.30
2022-12-16T12:25:11.937Z,0.30
2022-12-16T12:28:48.813Z,0.40
2022-12-16T12:32:16.442Z,0.40
2022-12-16T12:35:14.649Z,0.40
2022-12-16T12:38:14.275Z,0.38
2022-12-16T12:41:06.789Z,0.30
2022-12-16T12:44:21.697Z,0.35
2022-12-16T12:47:22.955Z,0.30
2022-12-16T12:50:27.659Z,0.30
2022-12-16T12:53:51.571Z,0.30
2022-12-16T12:57:08.726Z,0.40
2022-12-16T13:00:17.785Z,0.30
2022-12-16T13:03:21.693Z,0.30
2022-12-16T13:06:08.062Z,0.30
2022-12-16T13:09:03.120Z,0.30
2022-12-16T13:11:50.160Z,0.30
2022-12-16T13:14:50.550Z,0.30
2022-12-16T13:17:38.012Z,0.30
2022-12-16T13:20:45.045Z,0.32
2022-12-16T13:23:52.535Z,0.40
2022-12-16T13:26:39.924Z,0.40
2022-12-16T13:29:46.659Z,0.30
2022-12-16T13:32:37.418Z,0.30
2022-12-16T13:35:25.134Z,0.40
2022-12-16T13:38:22.423Z,0.30
2022-12-16T13:41:19.827Z,0.35
2022-12-16T13:44:11.272Z,0.40
2022-12-16T13:47:08.814Z,0.40
2022-12-16T13:50:03.197Z,0.38
2022-12-16T13:52:59.445Z,0.30
2022-12-16T13:55:57.060Z,0.30
2022-12-16T13:58:55.079Z,0.30
2022-12-16T14:01:52.466Z,0.30
2022-12-16T14:04:45.208Z,0.40
2022-12-16T14:07:30.732Z,0.40
2022-12-16T14:10:15.940Z,0.40
2022-12-16T14:13:04.800Z,0.40
2022-12-16T14:16:13.902Z,0.47
2022-12-16T14:19:07.027Z,0.40
2022-12-16T14:22:18.813Z,0.30
2022-12-16T14:25:04.145Z,0.40
2022-12-16T14:27:53.049Z,0.30
2022-12-16T14:30:43.894Z,0.32
2022-12-16T14:33:46.532Z,0.40
2022-12-16T14:36:46.718Z,0.40
2022-12-16T14:39:45.966Z,0.40
2022-12-16T14:42:19.944Z,0.40
2022-12-16T14:45:06.385Z,0.38
2022-12-16T14:47:51.891Z,0.30
2022-12-16T14:50:48.607Z,0.30
2022-12-16T14:53:49.207Z,0.40
2022-12-16T14:56:41.309Z,0.40
2022-12-16T14:59:38.401Z,0.40
2022-12-16T15:03:02.067Z,0.40
2022-12-16T15:05:51.459Z,0.35
2022-12-16T15:08:40.081Z,0.50
2022-12-16T15:11:28.642Z,0.50
2022-12-16T15:14:17.606Z,0.40
2022-12-16T15:17:04.447Z,0.47
2022-12-16T15:20:03.967Z,0.40
2022-12-16T15:22:50.278Z,0.40
2022-12-16T15:25:40.270Z,0.50
2022-12-16T15:28:54.979Z,0.50
2022-12-16T15:31:45.445Z,0.50
2022-12-16T15:34:43.780Z,0.40
2022-12-16T15:37:53.547Z,0.40
2022-12-16T15:40:48.881Z,0.50
2022-12-16T15:43:47.273Z,0.38
2022-12-16T15:46:43.018Z,0.40
2022-12-16T15:50:03.634Z,0.50
2022-12-16T15:56:15.163Z,0.40
2022-12-16T15:59:00.529Z,0.40
2022-12-16T16:01:47.174Z,0.50
2022-12-16T16:04:45.888Z,0.40
2022-12-16T16:07:42.232Z,0.50
2022-12-16T16:10:40.488Z,0.50
2022-12-16T16:13:26.494Z,0.55
2022-12-16T16:16:12.558Z,0.60
2022-12-16T16:18:59.961Z,0.40
2022-12-16T16:21:45.918Z,0.50
2022-12-16T16:24:31.424Z,0.50
2022-12-16T16:27:19.481Z,0.45
2022-12-16T16:30:04.886Z,0.40
2022-12-16T16:32:50.388Z,0.50
2022-12-16T16:35:35.978Z,0.40
2022-12-16T16:38:21.315Z,0.50
2022-12-16T16:41:06.898Z,0.43
2022-12-16T16:43:52.300Z,0.55
2022-12-16T16:46:46.490Z,0.50
2022-12-16T16:49:58.041Z,0.60
2022-12-16T16:52:44.922Z,0.50
2022-12-16T16:55:38.391Z,0.60
2022-12-16T16:58:38.458Z,0.40
2022-12-16T17:01:24.141Z,0.50
2022-12-16T17:04:09.608Z,0.50
2022-12-16T17:06:54.826Z,0.50
2022-12-16T17:09:41.285Z,0.50
2022-12-16T17:12:41.525Z,0.50
2022-12-16T17:15:42.498Z,0.60
2022-12-16T17:18:28.206Z,0.50
2022-12-16T17:21:14.082Z,0.60
2022-12-16T17:23:59.718Z,0.50
2022-12-16T17:26:45.544Z,0.52
2022-12-16T17:29:39.404Z,0.57
2022-12-16T17:32:25.017Z,0.45
2022-12-16T17:35:10.620Z,0.50
2022-12-16T17:37:56.108Z,0.55
2022-12-16T17:40:41.852Z,0.60
2022-12-16T17:43:30.282Z,0.40
2022-12-16T17:46:15.693Z,0.70
2022-12-16T17:49:02.164Z,0.60
2022-12-16T17:51:47.645Z,0.43
2022-12-16T17:54:33.346Z,0.50
2022-12-16T17:57:18.914Z,0.50
2022-12-16T18:00:04.391Z,0.63
2022-12-16T18:02:49.963Z,0.50
2022-12-16T18:05:42.500Z,0.50
2022-12-16T18:08:29.802Z,0.50
2022-12-16T18:11:16.177Z,0.60
2022-12-16T18:14:02.823Z,0.60
2022-12-16T18:16:48.594Z,0.60
2022-12-16T18:19:34.875Z,0.60
2022-12-16T18:22:20.249Z,0.50
2022-12-16T18:25:05.597Z,0.43
2022-12-16T18:27:51.010Z,0.60
2022-12-16T18:30:36.558Z,0.45
2022-12-16T18:33:22.057Z,0.50
2022-12-16T18:39:25.101Z,0.60
2022-12-16T18:42:10.509Z,0.50
2022-12-16T18:45:00.844Z,0.57
2022-12-16T18:47:46.332Z,0.65
2022-12-16T18:50:37.450Z,0.60
2022-12-16T18:53:23.376Z,0.52
2022-12-16T18:56:21.638Z,0.60
2022-12-16T18:59:07.025Z,0.70
2022-12-16T19:01:52.509Z,0.52
2022-12-16T19:04:37.785Z,0.50
2022-12-16T19:07:23.206Z,0.60
2022-12-16T19:10:08.534Z,0.60
2022-12-16T19:12:53.909Z,0.50
2022-12-16T19:18:21.276Z,0.60
2022-12-16T19:21:13.323Z,0.70
2022-12-16T19:23:58.923Z,0.57
2022-12-16T19:26:44.514Z,0.50
2022-12-16T19:29:30.139Z,0.60
2022-12-16T19:32:15.605Z,0.60
2022-12-16T19:35:02.559Z,0.60
2022-12-16T19:37:47.929Z,0.60
2022-12-16T19:40:33.448Z,0.50
2022-12-16T19:43:18.911Z,0.60
2022-12-16T19:46:11.100Z,0.60
2022-12-16T19:48:56.516Z,0.50
2022-12-16T19:51:42.040Z,0.60
2022-12-16T19:54:27.677Z,0.60
2022-12-16T19:57:13.127Z,0.70
2022-12-16T19:59:59.220Z,0.70
2022-12-16T20:02:44.841Z,0.60
2022-12-16T20:05:30.509Z,0.70
2022-12-16T20:08:15.826Z,0.52
2022-12-16T20:11:01.322Z,0.68
2022-12-16T20:13:51.157Z,0.70
2022-12-16T20:16:37.101Z,0.60
2022-12-16T20:19:22.707Z,0.60
2022-12-16T20:22:11.886Z,0.60
2022-12-16T20:25:13.397Z,0.70
2022-12-16T20:27:58.824Z,0.68
2022-12-16T20:30:44.427Z,0.60
2022-12-16T20:33:33.876Z,0.65
2022-12-16T20:36:20.831Z,0.60
2022-12-16T20:39:06.375Z,0.57
2022-12-16T20:41:51.875Z,0.52
2022-12-16T20:44:37.543Z,0.60
2022-12-16T20:47:23.041Z,0.60
2022-12-16T20:50:08.476Z,0.70
2022-12-16T20:52:54.704Z,0.60
2022-12-16T20:55:42.093Z,0.60
2022-12-16T20:58:27.571Z,0.70
2022-12-16T21:01:14.071Z,0.70
2022-12-16T21:03:59.559Z,0.65
2022-12-16T21:06:45.244Z,0.57
2022-12-16T21:09:30.715Z,0.60
2022-12-16T21:12:16.224Z,0.73
2022-12-16T21:15:01.716Z,0.70
2022-12-16T21:17:47.161Z,0.70
2022-12-16T21:20:33.245Z,0.60
2022-12-16T21:23:24.675Z,0.60
2022-12-16T21:26:10.338Z,0.70
2022-12-16T21:28:56.842Z,0.60
2022-12-16T21:31:42.627Z,0.50
2022-12-16T21:34:28.012Z,0.68
2022-12-16T21:37:13.480Z,0.63
2022-12-16T21:39:58.995Z,0.70
2022-12-16T21:42:44.478Z,0.65
2022-12-16T21:45:30.659Z,0.70
2022-12-16T21:48:16.202Z,0.70
2022-12-16T21:51:01.671Z,0.70
2022-12-16T21:53:47.611Z,0.57
2022-12-16T21:56:33.132Z,0.50
2022-12-16T21:59:18.755Z,0.70
2022-12-16T22:02:04.570Z,0.70
2022-12-16T22:05:03.327Z,0.70
2022-12-16T22:07:48.831Z,0.70
2022-12-16T22:10:34.272Z,0.68
2022-12-16T22:13:19.813Z,0.60
2022-12-16T22:16:18.392Z,0.60
2022-12-16T22:19:04.341Z,0.70
2022-12-16T22:21:49.921Z,0.65
2022-12-16T22:24:35.142Z,0.60
2022-12-16T22:27:20.473Z,0.73
2022-12-16T22:30:05.929Z,0.80
2022-12-16T22:32:51.519Z,0.60
2022-12-16T22:35:37.514Z,0.60
2022-12-16T22:38:23.522Z,0.70
2022-12-16T22:41:18.069Z,0.68
2022-12-16T22:44:04.247Z,0.75
2022-12-16T22:46:50.149Z,0.70
2022-12-16T22:49:35.734Z,0.70
2022-12-16T22:52:21.754Z,0.68
2022-12-16T22:55:07.135Z,0.65
2022-12-16T23:00:58.012Z,0.70
2022-12-16T23:03:44.281Z,0.70
2022-12-16T23:06:30.338Z,0.80
2022-12-16T23:09:15.660Z,0.80
2022-12-16T23:12:01.053Z,0.70
2022-12-16T23:14:46.553Z,0.70
2022-12-16T23:17:31.968Z,0.57
2022-12-16T23:20:17.292Z,0.70
2022-12-16T23:23:02.773Z,0.60
2022-12-16T23:25:48.134Z,0.70
2022-12-16T23:28:33.523Z,0.80
2022-12-16T23:31:18.935Z,0.60
2022-12-16T23:34:04.451Z,0.70
2022-12-16T23:36:49.557Z,0.50
2022-12-16T23:39:35.154Z,0.60
2022-12-16T23:42:20.442Z,0.80
2022-12-16T23:45:06.035Z,0.68
2022-12-16T23:47:51.546Z,0.60
2022-12-16T23:50:37.569Z,0.70
2022-12-16T23:53:23.792Z,0.70
2022-12-16T23:56:09.255Z,0.50
2022-12-16T23:58:56.248Z,0.70
